Time;durP1;ratioP1;P1;durP2;ratioP2;P2;SDS_P1;SDS_P2;PMS_P1;PMS_P2;Temp;Humidity;BMP_temperature;BMP_pressure;BME280_temperature;BME280_humidity;BME280_pressure;Samples;Min_cycle;Max_cycle;Signal;HPM_P1;HPM_P2
2020/12/25 00:01:06;;;;;;;11.13;3.42;;;3.60;99.90;;;;;;9858218;30;20131;-92
2020/12/25 00:06:10;;;;;;;9.50;3.25;;;3.50;99.90;;;;;;9836098;30;20080;-92
2020/12/25 00:11:12;;;;;;;9.32;2.28;;;3.50;99.90;;;;;;9849016;30;20063;-92
2020/12/25 00:16:16;;;;;;;11.52;3.42;;;3.50;99.90;;;;;;9863388;30;20072;-91
2020/12/25 00:21:18;;;;;;;12.80;3.45;;;3.40;99.90;;;;;;9834192;30;20059;-92
2020/12/25 00:26:27;;;;;;;9.38;2.88;;;3.20;99.90;;;;;;9848359;30;20453;-92
2020/12/25 00:31:34;;;;;;;11.48;2.75;;;3.10;99.90;;;;;;9849671;30;20067;-92
2020/12/25 00:36:39;;;;;;;9.75;3.35;;;3.00;99.90;;;;;;9847745;30;20535;-92
2020/12/25 00:41:48;;;;;;;12.32;2.65;;;2.90;99.90;;;;;;9861854;30;20139;-92
2020/12/25 00:46:49;;;;;;;8.25;2.70;;;2.80;99.90;;;;;;9862930;30;20070;-92
2020/12/25 00:51:51;;;;;;;8.85;2.22;;;2.70;99.90;;;;;;9847409;30;20493;-92
2020/12/25 00:56:52;;;;;;;9.18;2.47;;;2.70;99.90;;;;;;9862217;30;20072;-92
2020/12/25 01:01:54;;;;;;;6.03;1.95;;;2.60;99.90;;;;;;9862038;30;20056;-91
2020/12/25 01:06:55;;;;;;;12.30;2.55;;;2.60;99.90;;;;;;9861524;30;20130;-92
2020/12/25 01:11:59;;;;;;;10.85;2.28;;;2.50;99.90;;;;;;9846561;30;20094;-92
2020/12/25 01:17:01;;;;;;;10.90;2.13;;;2.40;99.90;;;;;;9860413;30;20095;-92
2020/12/25 01:22:02;;;;;;;5.85;1.85;;;2.40;99.90;;;;;;9861327;30;20139;-91
2020/12/25 01:27:04;;;;;;;6.88;2.45;;;2.30;99.90;;;;;;9860784;30;20102;-92
2020/12/25 01:32:05;;;;;;;9.18;3.08;;;2.30;99.90;;;;;;9860991;30;20068;-92
2020/12/25 01:37:07;;;;;;;7.97;2.38;;;2.30;99.90;;;;;;9846045;30;20071;-92
2020/12/25 01:42:08;;;;;;;;;;;2.20;99.90;;;;;;9831151;30;20143;-92
2020/12/25 01:47:16;;;;;;;9.02;2.05;;;2.30;99.90;;;;;;9808774;30;20449;-92
2020/12/25 01:52:18;;;;;;;9.80;2.28;;;2.30;99.90;;;;;;9824178;30;20056;-91
2020/12/25 01:57:22;;;;;;;11.85;2.47;;;2.20;99.90;;;;;;9809388;30;20068;-91
2020/12/25 02:02:25;;;;;;;4.97;2.08;;;2.20;99.90;;;;;;9841019;30;20079;-91
2020/12/25 02:07:27;;;;;;;11.25;3.42;;;2.10;99.90;;;;;;9873130;30;20147;-92
2020/12/25 02:12:28;;;;;;;11.60;2.65;;;2.10;99.90;;;;;;9874722;30;20056;-92
2020/12/25 02:17:30;;;;;;;;;;;2.00;99.90;;;;;;9872421;30;20083;-91
2020/12/25 02:22:31;;;;;;;8.02;1.80;;;2.00;99.90;;;;;;9844176;30;20375;-91
2020/12/25 02:27:33;;;;;;;6.80;3.70;;;1.90;99.90;;;;;;9865711;24;20492;-91
2020/12/25 02:32:36;;;;;;;16.63;2.83;;;1.90;99.90;;;;;;9856932;30;20139;-91
2020/12/25 02:37:48;;;;;;;11.85;2.63;;;2.00;99.90;;;;;;9873702;30;20075;-91
2020/12/25 02:42:51;;;;;;;8.60;2.33;;;2.00;99.90;;;;;;9858451;30;20051;-91
2020/12/25 02:47:52;;;;;;;5.05;2.03;;;1.90;99.90;;;;;;9858839;30;20067;-91
2020/12/25 02:52:54;;;;;;;8.00;1.80;;;1.90;99.90;;;;;;9857859;30;20587;-91
2020/12/25 02:57:55;;;;;;;7.80;1.80;;;1.90;99.90;;;;;;9858490;30;20067;-91
2020/12/25 03:02:57;;;;;;;8.95;1.70;;;1.90;99.90;;;;;;9857715;30;20489;-91
2020/12/25 03:08:07;;;;;;;8.82;1.65;;;1.90;99.90;;;;;;9859307;30;20135;-91
2020/12/25 03:13:09;;;;;;;9.32;2.08;;;2.00;99.90;;;;;;9857442;30;20117;-92
2020/12/25 03:18:10;;;;;;;7.55;1.83;;;2.10;99.90;;;;;;9857677;30;20131;-92
2020/12/25 03:23:12;;;;;;;9.30;1.98;;;2.10;99.90;;;;;;9856682;30;20535;-91
2020/12/25 03:28:14;;;;;;;4.63;1.23;;;2.00;99.90;;;;;;9864786;30;20474;-92
2020/12/25 03:33:16;;;;;;;;;;;2.10;99.90;;;;;;9879837;30;20067;-92
2020/12/25 03:38:24;;;;;;;11.88;2.20;;;2.10;99.90;;;;;;9886116;30;19974;-91
2020/12/25 03:43:26;;;;;;;8.85;1.67;;;2.20;99.90;;;;;;9886955;30;20079;-92
2020/12/25 03:48:28;;;;;;;11.15;1.88;;;2.30;99.90;;;;;;9886497;30;20146;-92
2020/12/25 03:53:30;;;;;;;7.38;1.58;;;2.30;99.90;;;;;;9900755;30;20527;-92
2020/12/25 03:58:32;;;;;;;;;;;2.40;99.90;;;;;;9871877;30;20134;-91
2020/12/25 04:03:33;;;;;;;4.32;1.23;;;2.40;99.90;;;;;;9880976;30;19986;-92
2020/12/25 04:08:46;;;;;;;4.75;1.48;;;2.40;99.90;;;;;;9837221;30;20066;-91
2020/12/25 04:13:47;;;;;;;5.72;1.25;;;2.40;99.90;;;;;;9848955;30;20068;-91
2020/12/25 04:18:49;;;;;;;9.45;1.65;;;2.50;99.90;;;;;;9848414;30;20086;-91
2020/12/25 04:23:52;;;;;;;9.25;1.25;;;2.50;99.90;;;;;;9848607;30;20068;-92
2020/12/25 04:28:53;;;;;;;4.85;1.23;;;2.60;99.90;;;;;;9846038;30;20067;-91
2020/12/25 04:33:55;;;;;;;7.22;1.30;;;2.60;99.90;;;;;;9875384;30;20091;-91
2020/12/25 04:39:06;;;;;;;0.98;0.73;;;2.50;99.90;;;;;;9860657;30;20063;-94
2020/12/25 04:44:09;;;;;;;5.75;1.20;;;2.50;99.90;;;;;;9877829;30;20463;-91
2020/12/25 04:49:11;;;;;;;5.32;1.48;;;2.40;99.90;;;;;;9847319;30;20125;-91
2020/12/25 04:54:12;;;;;;;;;;;2.40;99.90;;;;;;9847766;30;20154;-91
2020/12/25 04:59:13;;;;;;;5.30;1.05;;;2.10;99.90;;;;;;9847409;30;19961;-92
2020/12/25 05:04:23;;;;;;;2.28;0.85;;;2.10;99.90;;;;;;9846969;30;20528;-91
2020/12/25 05:09:26;;;;;;;1.77;0.55;;;2.00;99.90;;;;;;9861962;30;20086;-91
2020/12/25 05:14:32;;;;;;;6.80;1.05;;;1.90;99.90;;;;;;9846507;30;20064;-91
2020/12/25 05:19:35;;;;;;;7.97;1.25;;;1.90;99.90;;;;;;9846704;30;20455;-92
2020/12/25 05:24:39;;;;;;;3.65;0.93;;;2.00;99.90;;;;;;9846296;30;20087;-91
2020/12/25 05:29:42;;;;;;;2.72;0.82;;;2.00;99.90;;;;;;9846078;30;20067;-91
2020/12/25 05:34:44;;;;;;;1.83;0.95;;;1.90;99.90;;;;;;9846000;30;20060;-92
2020/12/25 05:39:47;;;;;;;5.20;1.02;;;2.10;99.90;;;;;;9897319;30;20063;-92
2020/12/25 05:44:49;;;;;;;0.80;0.80;;;2.20;99.90;;;;;;9882801;30;20124;-92
2020/12/25 05:49:51;;;;;;;;;;;2.10;99.90;;;;;;9897398;30;20147;-92
2020/12/25 05:54:55;;;;;;;1.60;0.65;;;2.00;99.90;;;;;;9882312;30;19929;-92
2020/12/25 06:00:05;;;;;;;6.15;0.90;;;2.00;99.90;;;;;;9895152;29;20142;-92
2020/12/25 06:05:09;;;;;;;2.08;1.08;;;2.10;99.90;;;;;;9897218;30;20083;-92
2020/12/25 06:10:23;;;;;;;5.20;2.08;;;2.30;99.90;;;;;;9867370;30;20079;-92
2020/12/25 06:15:31;;;;;;;2.38;1.27;;;2.30;99.90;;;;;;9881242;30;20245;-91
2020/12/25 06:20:39;;;;;;;1.67;1.00;;;2.50;99.90;;;;;;9895638;30;20082;-92
2020/12/25 06:25:41;;;;;;;2.65;1.10;;;2.50;99.90;;;;;;9881192;30;20496;-91
2020/12/25 06:30:43;;;;;;;7.43;1.65;;;2.50;99.90;;;;;;9881166;30;20401;-91
2020/12/25 06:35:47;;;;;;;6.88;1.90;;;2.50;99.90;;;;;;9881510;30;20082;-91
2020/12/25 06:40:49;;;;;;;2.40;1.48;;;2.60;99.90;;;;;;9880199;30;20133;-96
2020/12/25 06:45:52;;;;;;;;;;;2.50;99.90;;;;;;9867474;30;20142;-95
2020/12/25 06:50:57;;;;;;;8.82;1.60;;;2.50;99.90;;;;;;9880955;30;19925;-95
2020/12/25 06:56:18;;;;;;;4.80;1.50;;;2.40;99.90;;;;;;9879775;30;20424;-95
2020/12/25 07:01:43;;;;;;;8.02;2.10;;;2.30;99.90;;;;;;9879691;30;20496;-95
2020/12/25 07:06:52;;;;;;;10.60;1.48;;;2.30;99.90;;;;;;9896009;30;20063;-96
2020/12/25 07:11:53;;;;;;;9.32;1.90;;;2.30;99.90;;;;;;9893832;30;20567;-96
2020/12/25 07:16:55;;;;;;;;;;;2.20;99.90;;;;;;9895366;30;20507;-96
2020/12/25 07:21:57;;;;;;;5.93;2.95;;;2.30;99.90;;;;;;9879452;30;20012;-95
2020/12/25 07:26:58;;;;;;;12.98;1.70;;;2.50;99.90;;;;;;9895524;30;20071;-95
2020/12/25 07:32:00;;;;;;;7.60;1.75;;;2.60;99.90;;;;;;9899018;30;20151;-94
2020/12/25 07:37:02;;;;;;;11.43;2.38;;;2.60;99.90;;;;;;9881262;30;20445;-95
2020/12/25 07:42:07;;;;;;;7.55;1.65;;;2.50;99.90;;;;;;9909078;30;20063;-95
2020/12/25 07:47:09;;;;;;;4.70;1.30;;;2.50;99.90;;;;;;9909097;30;20087;-95
2020/12/25 07:52:10;;;;;;;8.73;1.98;;;2.50;99.90;;;;;;9910136;30;20070;-96
2020/12/25 07:57:12;;;;;;;;;;;2.40;99.90;;;;;;9909326;30;20523;-95
2020/12/25 08:02:14;;;;;;;9.25;2.20;;;2.40;99.90;;;;;;9893237;30;20028;-96
2020/12/25 08:07:15;;;;;;;6.93;1.10;;;2.30;99.90;;;;;;9893648;30;20097;-95
2020/12/25 08:12:18;;;;;;;;;;;2.30;99.90;;;;;;9879806;30;20069;-95
2020/12/25 08:17:20;;;;;;;4.57;2.15;;;2.30;99.90;;;;;;9894402;30;20259;-95
2020/12/25 08:22:21;;;;;;;;;;;2.40;99.90;;;;;;9910461;29;20062;-95
2020/12/25 08:27:24;;;;;;;17.73;2.63;;;2.40;99.90;;;;;;9900175;30;19961;-95
2020/12/25 08:32:32;;;;;;;6.68;2.25;;;2.40;99.90;;;;;;9914054;30;20470;-94
2020/12/25 08:37:34;;;;;;;11.93;1.80;;;2.50;99.90;;;;;;9900467;30;20059;-94
2020/12/25 08:42:35;;;;;;;;;;;2.50;99.90;;;;;;9900654;30;20058;-94
2020/12/25 08:47:37;;;;;;;8.57;1.50;;;2.50;99.90;;;;;;9885292;30;19975;-95
2020/12/25 08:52:39;;;;;;;;;;;2.70;99.90;;;;;;9916227;30;20070;-95
2020/12/25 08:57:42;;;;;;;8.67;2.73;;;2.80;99.90;;;;;;9898575;30;19992;-94
2020/12/25 09:02:44;;;;;;;9.15;1.90;;;2.80;99.90;;;;;;9884004;30;20059;-94
2020/12/25 09:07:46;;;;;;;5.22;1.55;;;3.00;99.90;;;;;;9884373;30;20059;-96
2020/12/25 09:12:47;;;;;;;11.32;2.65;;;3.00;99.90;;;;;;9899079;30;20082;-94
2020/12/25 09:18:07;;;;;;;14.35;4.22;;;3.00;99.90;;;;;;9885146;30;20063;-96
2020/12/25 09:23:11;;;;;;;6.70;1.55;;;3.20;99.90;;;;;;9886999;30;20052;-95
2020/12/25 10:24:15;;;;;;;17.67;2.90;;;3.70;99.90;;;;;;9922557;29;20054;-92
2020/12/25 10:29:16;;;;;;;8.40;2.67;;;3.70;99.90;;;;;;9919135;29;20137;-92
2020/12/25 10:34:19;;;;;;;9.40;2.00;;;3.80;99.90;;;;;;9919121;29;20058;-92
2020/12/25 10:39:20;;;;;;;4.90;2.20;;;4.10;99.90;;;;;;9917864;29;20097;-92
2020/12/25 10:44:23;;;;;;;7.45;1.92;;;4.40;99.90;;;;;;9917730;29;20062;-91
2020/12/25 10:49:25;;;;;;;4.75;1.90;;;4.40;99.90;;;;;;9917445;29;20088;-91
2020/12/25 10:54:27;;;;;;;4.82;1.83;;;4.70;99.90;;;;;;9889806;29;20082;-92
2020/12/25 10:59:28;;;;;;;5.10;2.10;;;4.50;99.90;;;;;;9917024;29;20059;-93
2020/12/25 11:04:30;;;;;;;8.35;1.70;;;4.70;99.90;;;;;;9917215;29;20063;-92
2020/12/25 11:09:32;;;;;;;8.55;2.03;;;4.60;99.90;;;;;;9917695;29;20146;-92
2020/12/25 11:14:34;;;;;;;7.43;1.52;;;4.70;99.90;;;;;;9916760;29;20111;-93
2020/12/25 11:19:37;;;;;;;1.67;1.00;;;4.40;99.90;;;;;;9917013;29;20112;-92
2020/12/25 11:24:43;;;;;;;4.40;1.30;;;4.10;99.90;;;;;;9916880;29;20232;-92
2020/12/25 11:29:45;;;;;;;3.95;1.30;;;4.30;99.90;;;;;;9932263;29;20082;-93
2020/12/25 11:34:47;;;;;;;;;;;4.30;99.90;;;;;;9919552;29;20491;-93
2020/12/25 11:39:48;;;;;;;2.35;0.68;;;4.20;99.90;;;;;;9931948;29;19960;-92
2020/12/25 11:44:52;;;;;;;4.15;0.80;;;4.40;99.90;;;;;;9903069;29;20491;-93
2020/12/25 11:49:55;;;;;;;2.35;1.73;;;4.30;99.90;;;;;;9917328;29;20515;-90
2020/12/25 11:54:57;;;;;;;7.20;1.95;;;4.30;99.90;;;;;;9916593;29;20062;-90
2020/12/25 11:59:59;;;;;;;;;;;4.30;99.90;;;;;;9934540;29;20508;-93
2020/12/25 12:05:00;;;;;;;4.97;1.48;;;4.40;99.90;;;;;;9922103;29;19929;-93
2020/12/25 12:10:02;;;;;;;8.40;1.65;;;4.50;99.90;;;;;;9906161;30;20059;-94
2020/12/25 12:15:03;;;;;;;7.57;1.58;;;5.30;99.90;;;;;;9885948;30;20059;-94
2020/12/25 12:20:05;;;;;;;;;;;4.90;99.90;;;;;;9885717;30;20083;-95
2020/12/25 12:25:08;;;;;;;3.80;1.67;;;4.50;99.90;;;;;;9885523;30;20344;-94
2020/12/25 12:30:09;;;;;;;5.63;2.00;;;4.50;99.90;;;;;;9872165;30;20063;-93
2020/12/25 12:35:11;;;;;;;5.75;1.90;;;4.40;99.90;;;;;;9887950;30;20063;-95
2020/12/25 12:40:15;;;;;;;;;;;4.70;99.90;;;;;;9886426;30;20117;-94
2020/12/25 12:45:16;;;;;;;4.88;1.33;;;4.40;99.90;;;;;;9884387;30;20294;-93
2020/12/25 12:50:18;;;;;;;9.88;2.35;;;4.70;99.90;;;;;;9870540;30;20142;-93
2020/12/25 12:55:19;;;;;;;5.05;1.55;;;5.00;99.90;;;;;;9870329;30;20063;-91
2020/12/25 13:00:21;;;;;;;6.32;1.13;;;4.50;99.90;;;;;;9884784;30;20059;-92
2020/12/25 13:05:22;;;;;;;4.82;1.17;;;4.80;99.90;;;;;;9877967;29;20404;-91
2020/12/25 13:10:25;;;;;;;5.45;1.58;;;4.80;99.90;;;;;;9883374;30;20117;-91
2020/12/25 13:15:27;;;;;;;3.63;1.00;;;4.70;99.90;;;;;;9869228;30;20066;-90
2020/12/25 13:20:28;;;;;;;5.82;1.88;;;4.90;99.90;;;;;;9883029;30;20055;-91
2020/12/25 13:25:30;;;;;;;2.65;1.13;;;5.10;99.90;;;;;;9894863;29;20071;-90
2020/12/25 13:30:34;;;;;;;13.65;3.97;;;5.00;99.90;;;;;;9915478;29;20115;-90
2020/12/25 13:35:36;;;;;;;7.78;1.30;;;5.60;99.90;;;;;;9920238;29;20062;-90
2020/12/25 13:40:38;;;;;;;9.75;1.92;;;4.50;99.90;;;;;;9871721;30;20063;-90
2020/12/25 13:45:39;;;;;;;11.65;1.77;;;5.30;99.90;;;;;;9868062;30;20517;-90
2020/12/25 13:50:41;;;;;;;6.88;1.58;;;5.00;99.90;;;;;;9867405;30;20063;-90
2020/12/25 13:55:42;;;;;;;8.07;1.63;;;4.70;99.90;;;;;;9875491;29;20158;-91
2020/12/25 14:00:44;;;;;;;10.38;2.42;;;4.60;99.90;;;;;;9918116;29;20058;-91
2020/12/25 14:05:45;;;;;;;7.50;2.00;;;4.70;99.90;;;;;;9915558;29;20069;-90
2020/12/25 14:10:47;;;;;;;5.15;2.20;;;4.40;99.90;;;;;;9905917;29;20154;-91
2020/12/25 14:15:48;;;;;;;7.43;1.60;;;4.20;99.90;;;;;;9894628;29;20061;-91
2020/12/25 14:20:51;;;;;;;3.83;1.48;;;4.20;99.90;;;;;;9902693;29;20145;-91
2020/12/25 14:25:52;;;;;;;;;;;3.70;99.90;;;;;;9918126;29;20059;-91
2020/12/25 14:30:54;;;;;;;13.18;5.07;;;4.10;99.90;;;;;;9933275;29;19924;-90
2020/12/25 14:35:55;;;;;;;4.85;2.25;;;4.30;99.90;;;;;;9917570;29;20073;-91
2020/12/25 14:40:57;;;;;;;4.30;1.98;;;4.20;99.90;;;;;;9917509;29;20059;-91
2020/12/25 14:45:58;;;;;;;8.13;2.75;;;3.70;99.90;;;;;;9930922;29;20061;-91
2020/12/25 14:51:00;;;;;;;7.18;2.47;;;4.00;99.90;;;;;;9925549;29;20070;-88
2020/12/25 14:56:24;;;;;;;10.27;2.28;;;3.50;99.90;;;;;;9865495;29;20070;-89
2020/12/25 15:01:40;;;;;;;8.23;2.25;;;3.90;99.90;;;;;;9871690;30;20051;-89
2020/12/25 15:06:42;;;;;;;24.38;7.25;;;3.40;99.90;;;;;;9893775;30;20066;-89
2020/12/25 15:11:43;;;;;;;;;;;3.40;99.90;;;;;;9891824;29;20063;-89
2020/12/25 15:16:45;;;;;;;4.10;2.70;;;3.40;99.90;;;;;;9914032;29;19932;-89
2020/12/25 15:21:47;;;;;;;9.50;2.40;;;3.30;99.90;;;;;;9849897;30;20052;-89
2020/12/25 15:26:52;;;;;;;6.50;2.60;;;3.50;99.90;;;;;;9887138;29;20134;-89
2020/12/25 15:31:54;;;;;;;7.88;3.20;;;2.60;99.90;;;;;;9917407;29;20062;-89
2020/12/25 15:37:00;;;;;;;14.90;3.88;;;2.80;99.90;;;;;;9906153;29;20147;-89
2020/12/25 15:42:03;;;;;;;5.13;2.20;;;2.10;99.90;;;;;;9887351;30;20062;-90
2020/12/25 15:47:05;;;;;;;6.72;2.10;;;2.70;99.90;;;;;;9871814;30;20134;-90
2020/12/25 15:52:06;;;;;;;7.00;2.40;;;2.90;99.90;;;;;;9886715;30;20078;-90
2020/12/25 15:57:08;;;;;;;7.82;2.97;;;2.70;99.90;;;;;;9871174;30;20067;-90
2020/12/25 16:02:10;;;;;;;16.35;8.00;;;2.90;99.90;;;;;;9870746;30;20070;-90
2020/12/25 16:07:12;;;;;;;9.85;3.55;;;2.60;99.90;;;;;;9871795;30;20158;-90
2020/12/25 16:12:14;;;;;;;8.45;3.20;;;2.30;99.90;;;;;;9855047;30;20419;-89
2020/12/25 16:17:15;;;;;;;20.45;7.95;;;2.40;99.90;;;;;;9869465;29;20067;-89
2020/12/25 16:22:20;;;;;;;13.45;5.32;;;2.60;99.90;;;;;;9912307;29;20471;-88
2020/12/25 16:27:22;;;;;;;13.27;2.92;;;2.60;99.90;;;;;;9936225;29;20065;-92
2020/12/25 16:32:23;;;;;;;11.48;3.95;;;2.90;99.90;;;;;;9921735;29;20405;-92
2020/12/25 16:37:25;;;;;;;11.55;3.67;;;3.50;99.90;;;;;;9894956;30;20071;-92
2020/12/25 16:42:26;;;;;;;10.88;2.97;;;3.50;99.90;;;;;;9884106;29;20483;-91
2020/12/25 16:47:28;;;;;;;5.53;3.08;;;3.30;99.90;;;;;;9884636;30;20056;-91
2020/12/25 16:52:33;;;;;;;;;;;3.60;99.90;;;;;;9885047;30;20079;-91
2020/12/25 16:57:35;;;;;;;10.38;3.08;;;3.20;99.90;;;;;;9884977;30;19965;-90
2020/12/25 17:08:49;;;;;;;6.43;2.40;;;3.10;99.90;;;;;;9786387;30;20076;-92
2020/12/25 17:14:02;;;;;;;7.97;2.85;;;3.10;99.90;;;;;;9915943;29;20078;-91
2020/12/25 17:19:29;;;;;;;7.32;3.88;;;2.90;99.90;;;;;;9921095;29;20059;-94
2020/12/25 17:31:49;;;;;;;5.30;2.60;;;2.50;99.90;;;;;;9836258;30;20056;-93
2020/12/25 17:43:54;;;;;;;7.72;3.00;;;2.90;99.90;;;;;;9591865;30;20095;-91
2020/12/25 17:48:56;;;;;;;6.80;3.03;;;2.50;99.90;;;;;;9663154;30;20066;-91
2020/12/25 17:54:10;;;;;;;5.97;3.60;;;3.30;99.90;;;;;;9731904;30;20073;-91
2020/12/25 17:59:13;;;;;;;9.88;3.00;;;2.60;99.90;;;;;;9784526;30;20060;-93
2020/12/25 18:04:17;;;;;;;11.85;3.03;;;3.60;99.90;;;;;;9788722;30;20057;-94
2020/12/25 18:09:32;;;;;;;7.95;3.53;;;3.00;99.90;;;;;;9896108;30;20120;-90
